createdAt,value
2022-08-03T00:02:19.751Z,27.25
2022-08-03T00:04:47.926Z,27.16
2022-08-03T00:07:16.007Z,27.06
2022-08-03T00:09:44.014Z,26.86
2022-08-03T00:12:12.066Z,26.64
2022-08-03T00:14:40.114Z,26.53
2022-08-03T00:17:09.133Z,26.58
2022-08-03T00:19:36.895Z,26.71
2022-08-03T00:22:04.845Z,26.84
2022-08-03T00:24:32.907Z,26.92
2022-08-03T00:27:00.516Z,26.95
2022-08-03T00:29:28.303Z,27.03
2022-08-03T00:32:00.224Z,27.08
2022-08-03T00:34:35.256Z,27.01
2022-08-03T00:37:16.525Z,26.94
2022-08-03T00:39:47.287Z,26.76
2022-08-03T00:42:16.058Z,26.63
2022-08-03T00:44:44.749Z,26.66
2022-08-03T00:47:13.240Z,26.64
2022-08-03T00:49:41.939Z,26.64
2022-08-03T00:52:10.696Z,26.57
2022-08-03T00:54:38.654Z,26.53
2022-08-03T00:57:07.570Z,26.57
2022-08-03T00:59:35.269Z,26.57
2022-08-03T01:02:03.369Z,26.64
2022-08-03T01:04:31.562Z,26.58
2022-08-03T01:07:10.799Z,26.46
2022-08-03T01:10:00.521Z,26.49
2022-08-03T01:12:58.215Z,26.34
2022-08-03T01:15:36.263Z,26.31
2022-08-03T01:18:15.232Z,26.32
2022-08-03T01:20:47.803Z,26.22
2022-08-03T01:24:03.331Z,26.12
2022-08-03T01:26:43.526Z,25.96
2022-08-03T01:29:30.283Z,25.98
2022-08-03T01:32:53.365Z,25.93
2022-08-03T01:35:01.676Z,25.80
2022-08-03T01:37:38.652Z,25.90
2022-08-03T01:40:09.741Z,25.77
2022-08-03T01:42:39.052Z,26.01
2022-08-03T01:45:11.015Z,25.96
2022-08-03T01:47:40.862Z,25.83
2022-08-03T01:50:10.864Z,25.68
2022-08-03T01:52:42.451Z,25.55
2022-08-03T01:55:13.563Z,25.44
2022-08-03T01:58:05.247Z,25.32
2022-08-03T02:00:33.428Z,25.29
2022-08-03T02:03:04.516Z,25.41
2022-08-03T02:05:33.263Z,25.43
2022-08-03T02:08:03.599Z,25.53
2022-08-03T02:10:34.535Z,25.40
2022-08-03T02:13:08.514Z,25.47
2022-08-03T02:15:38.883Z,25.58
2022-08-03T02:18:10.761Z,25.38
2022-08-03T02:20:40.601Z,25.30
2022-08-03T02:23:09.047Z,25.25
2022-08-03T02:25:44.469Z,25.36
2022-08-03T02:28:17.602Z,25.51
2022-08-03T02:30:53.875Z,25.53
2022-08-03T02:33:32.177Z,25.60
2022-08-03T02:36:01.302Z,25.76
2022-08-03T02:38:36.619Z,25.80
2022-08-03T02:41:09.148Z,25.89
2022-08-03T02:44:05.690Z,25.80
2022-08-03T02:46:44.717Z,25.59
2022-08-03T02:49:40.790Z,25.60
2022-08-03T02:52:05.613Z,25.56
2022-08-03T02:54:41.491Z,25.43
2022-08-03T02:57:11.383Z,25.45
2022-08-03T02:59:40.467Z,25.49
2022-08-03T03:02:09.396Z,25.62
2022-08-03T03:04:37.615Z,25.73
2022-08-03T03:07:16.600Z,25.78
2022-08-03T03:09:44.879Z,25.55
2022-08-03T03:12:13.847Z,25.51
2022-08-03T03:14:42.073Z,25.66
2022-08-03T03:17:11.805Z,25.65
2022-08-03T03:19:40.906Z,25.55
2022-08-03T03:22:10.626Z,25.67
2022-08-03T03:24:41.125Z,25.36
2022-08-03T03:27:09.240Z,25.19
2022-08-03T03:29:39.369Z,25.21
2022-08-03T03:32:09.168Z,24.90
2022-08-03T03:34:37.735Z,24.70
2022-08-03T03:37:06.185Z,24.57
2022-08-03T03:39:33.869Z,24.65
2022-08-03T03:42:02.217Z,24.78
2022-08-03T03:44:30.320Z,24.94
2022-08-03T03:46:58.477Z,25.12
2022-08-03T03:49:26.986Z,25.28
2022-08-03T03:51:56.142Z,25.34
2022-08-03T03:54:25.610Z,25.35
2022-08-03T03:56:57.968Z,25.36
2022-08-03T03:59:25.544Z,25.09
2022-08-03T04:01:58.769Z,25.05
2022-08-03T04:04:45.832Z,25.00
2022-08-03T04:07:31.941Z,24.95
2022-08-03T04:10:19.302Z,24.87
2022-08-03T04:12:49.999Z,24.96
2022-08-03T04:15:23.299Z,24.96
2022-08-03T04:17:54.129Z,25.00
2022-08-03T04:20:24.353Z,25.16
2022-08-03T04:22:54.990Z,25.10
2022-08-03T04:25:26.455Z,25.11
2022-08-03T04:28:08.142Z,25.23
2022-08-03T04:30:50.768Z,25.34
2022-08-03T04:33:20.326Z,25.39
2022-08-03T04:36:02.048Z,25.47
2022-08-03T04:38:40.702Z,25.52
2022-08-03T04:41:09.398Z,25.48
2022-08-03T04:43:43.343Z,25.63
2022-08-03T04:46:12.645Z,25.63
2022-08-03T04:48:44.344Z,25.52
2022-08-03T04:51:13.502Z,25.46
2022-08-03T04:53:44.010Z,25.49
2022-08-03T04:56:11.775Z,25.55
2022-08-03T04:58:39.499Z,25.48
2022-08-03T05:01:07.619Z,25.50
2022-08-03T05:03:35.307Z,25.71
2022-08-03T05:06:11.288Z,25.97
2022-08-03T05:08:45.996Z,26.17
2022-08-03T05:11:16.079Z,26.41
2022-08-03T05:13:45.696Z,26.49
2022-08-03T05:16:14.506Z,26.40
2022-08-03T05:18:43.151Z,26.04
2022-08-03T05:21:12.484Z,25.94
2022-08-03T05:23:40.490Z,26.13
2022-08-03T05:26:08.096Z,26.52
2022-08-03T05:28:35.773Z,26.74
2022-08-03T05:31:03.463Z,26.72
2022-08-03T05:33:31.758Z,26.32
2022-08-03T05:36:03.309Z,26.54
2022-08-03T05:38:34.569Z,26.88
2022-08-03T05:41:22.230Z,26.92
2022-08-03T05:43:53.972Z,27.24
2022-08-03T05:46:23.012Z,27.35
2022-08-03T05:48:51.568Z,27.47
2022-08-03T05:51:19.540Z,27.65
2022-08-03T05:53:47.071Z,27.65
2022-08-03T05:56:16.553Z,27.80
2022-08-03T05:58:46.461Z,27.90
2022-08-03T06:01:15.479Z,28.03
2022-08-03T06:03:43.791Z,28.11
2022-08-03T06:06:12.150Z,28.31
2022-08-03T06:08:43.355Z,28.31
2022-08-03T06:11:11.728Z,28.42
2022-08-03T06:13:39.914Z,28.59
2022-08-03T06:16:07.905Z,28.74
2022-08-03T06:18:36.044Z,28.96
2022-08-03T06:21:14.352Z,29.07
2022-08-03T06:23:53.128Z,29.06
2022-08-03T06:26:25.021Z,29.19
2022-08-03T06:28:54.163Z,29.29
2022-08-03T06:31:26.001Z,29.24
2022-08-03T06:34:33.153Z,29.29
2022-08-03T06:36:57.430Z,29.23
2022-08-03T06:39:29.428Z,29.07
2022-08-03T06:41:57.092Z,29.28
2022-08-03T06:44:24.916Z,29.36
2022-08-03T06:46:53.026Z,29.50
2022-08-03T06:49:21.299Z,29.60
2022-08-03T06:52:04.356Z,29.63
2022-08-03T06:54:34.121Z,29.75
2022-08-03T06:57:01.999Z,29.64
2022-08-03T07:00:11.052Z,29.89
2022-08-03T07:02:21.007Z,29.90
2022-08-03T07:04:50.092Z,30.00
2022-08-03T07:07:19.315Z,29.68
2022-08-03T07:09:57.388Z,29.72
2022-08-03T07:12:28.057Z,29.75
2022-08-03T07:15:00.711Z,29.81
2022-08-03T07:17:32.683Z,29.99
2022-08-03T07:20:01.940Z,30.29
2022-08-03T07:22:30.406Z,30.22
2022-08-03T07:24:59.097Z,30.20
2022-08-03T07:27:28.660Z,30.15
2022-08-03T07:29:58.102Z,30.19
2022-08-03T07:32:26.448Z,30.41
2022-08-03T07:34:59.972Z,30.40
2022-08-03T07:37:29.487Z,30.49
2022-08-03T07:39:58.589Z,30.53
2022-08-03T07:42:27.751Z,30.70
2022-08-03T07:44:55.495Z,30.65
2022-08-03T07:47:25.691Z,30.67
2022-08-03T07:50:05.151Z,30.67
2022-08-03T07:52:52.897Z,30.52
2022-08-03T07:55:23.243Z,30.98
2022-08-03T07:58:01.517Z,31.00
2022-08-03T08:00:30.219Z,30.85
2022-08-03T08:02:58.277Z,30.84
2022-08-03T08:05:27.034Z,30.95
2022-08-03T08:07:55.076Z,30.96
2022-08-03T08:10:22.842Z,31.03
2022-08-03T08:12:51.028Z,31.37
2022-08-03T08:15:18.676Z,31.22
2022-08-03T08:17:49.513Z,30.77
2022-08-03T08:20:31.342Z,31.11
2022-08-03T08:23:02.917Z,31.20
2022-08-03T08:25:32.384Z,31.25
2022-08-03T08:28:29.830Z,31.34
2022-08-03T08:30:52.277Z,31.59
2022-08-03T08:33:23.131Z,31.69
2022-08-03T08:35:53.778Z,31.51
2022-08-03T08:38:22.233Z,31.58
2022-08-03T08:40:50.994Z,31.76
2022-08-03T08:43:18.765Z,31.98
2022-08-03T08:45:49.644Z,32.11
2022-08-03T08:48:23.557Z,31.95
2022-08-03T08:50:57.308Z,31.91
2022-08-03T08:53:30.486Z,31.77
2022-08-03T08:56:01.204Z,31.97
2022-08-03T08:58:35.323Z,31.98
2022-08-03T09:01:04.762Z,32.43
2022-08-03T09:03:34.753Z,32.31
2022-08-03T09:06:03.846Z,32.06
2022-08-03T09:08:33.192Z,32.04
2022-08-03T09:11:01.240Z,32.51
2022-08-03T09:13:30.561Z,32.45
2022-08-03T09:16:24.610Z,32.50
2022-08-03T09:18:54.423Z,32.73
2022-08-03T09:21:32.201Z,32.74
2022-08-03T09:24:04.308Z,33.02
2022-08-03T09:26:38.230Z,32.76
2022-08-03T09:29:13.853Z,32.85
2022-08-03T09:31:45.487Z,32.93
2022-08-03T09:34:16.198Z,33.09
2022-08-03T09:36:45.006Z,33.20
2022-08-03T09:39:18.264Z,33.31
2022-08-03T09:41:48.775Z,33.34
2022-08-03T09:44:25.860Z,33.44
2022-08-03T09:46:58.310Z,33.78
2022-08-03T09:49:26.082Z,33.18
2022-08-03T09:52:38.429Z,33.29
2022-08-03T09:54:43.163Z,33.64
2022-08-03T09:57:26.345Z,33.83
2022-08-03T10:00:03.011Z,34.11
2022-08-03T10:02:44.629Z,34.80
2022-08-03T10:05:19.786Z,35.60
2022-08-03T10:07:50.025Z,35.78
2022-08-03T10:10:29.117Z,35.44
2022-08-03T10:13:00.486Z,34.62
2022-08-03T10:16:22.023Z,34.78
2022-08-03T10:18:17.293Z,34.63
2022-08-03T10:20:52.239Z,34.87
2022-08-03T10:23:22.866Z,34.74
2022-08-03T10:25:58.268Z,34.79
2022-08-03T10:28:29.306Z,34.94
2022-08-03T10:30:57.338Z,34.92
2022-08-03T10:33:51.568Z,34.86
2022-08-03T10:36:17.799Z,34.91
2022-08-03T10:38:55.292Z,35.47
2022-08-03T10:41:31.050Z,36.06
2022-08-03T10:44:15.773Z,35.89
2022-08-03T10:46:45.406Z,36.20
2022-08-03T10:49:16.697Z,36.23
2022-08-03T10:52:00.368Z,36.88
2022-08-03T10:54:37.134Z,36.84
2022-08-03T10:57:23.719Z,37.59
2022-08-03T10:59:55.914Z,38.31
2022-08-03T11:02:23.435Z,37.84
2022-08-03T11:05:29.846Z,37.90
2022-08-03T11:08:23.197Z,38.58
2022-08-03T11:10:54.642Z,37.59
2022-08-03T11:13:25.329Z,37.28
2022-08-03T11:16:01.678Z,37.18
2022-08-03T11:18:32.017Z,36.41
2022-08-03T11:21:01.628Z,36.40
2022-08-03T11:24:03.994Z,36.08
2022-08-03T11:26:34.334Z,36.22
2022-08-03T11:29:28.332Z,36.42
2022-08-03T11:31:57.017Z,37.11
2022-08-03T11:34:26.223Z,37.41
2022-08-03T11:37:23.017Z,37.13
2022-08-03T11:39:53.353Z,37.00
2022-08-03T11:42:24.122Z,36.89
2022-08-03T11:45:00.961Z,36.68
2022-08-03T11:47:30.536Z,37.57
2022-08-03T11:50:02.234Z,37.20
2022-08-03T11:52:38.880Z,37.72
2022-08-03T11:55:11.943Z,38.24
2022-08-03T11:59:19.543Z,38.20
2022-08-03T12:00:32.605Z,38.48
2022-08-03T12:03:07.110Z,38.45
2022-08-03T12:05:35.875Z,39.17
2022-08-03T12:08:06.908Z,39.86
2022-08-03T12:10:35.829Z,40.28
2022-08-03T12:14:27.419Z,40.72
2022-08-03T12:15:59.250Z,41.92
2022-08-03T12:18:27.997Z,41.48
2022-08-03T12:21:11.195Z,42.07
2022-08-03T12:23:39.916Z,40.56
2022-08-03T12:26:10.086Z,40.93
2022-08-03T12:28:38.535Z,40.90
2022-08-03T12:31:09.623Z,41.05
2022-08-03T12:34:05.179Z,40.83
2022-08-03T12:36:36.419Z,41.82
2022-08-03T12:39:12.144Z,40.68
2022-08-03T12:41:41.061Z,40.62
2022-08-03T12:44:10.484Z,41.91
2022-08-03T12:46:45.381Z,41.60
2022-08-03T12:49:20.046Z,42.42
2022-08-03T12:51:48.022Z,42.88
2022-08-03T12:54:24.934Z,42.08
2022-08-03T12:57:16.275Z,42.40
2022-08-03T12:59:53.573Z,44.13
2022-08-03T13:02:27.327Z,46.46
2022-08-03T13:04:56.142Z,46.52
2022-08-03T13:07:23.728Z,47.55
2022-08-03T13:09:57.505Z,46.49
2022-08-03T13:12:27.522Z,46.00
2022-08-03T13:14:57.506Z,44.78
2022-08-03T13:17:26.027Z,47.07
2022-08-03T13:19:53.861Z,47.19
2022-08-03T13:22:23.997Z,46.39
2022-08-03T13:24:53.612Z,45.00
2022-08-03T13:28:02.086Z,46.20
2022-08-03T13:30:10.447Z,46.95
2022-08-03T13:32:38.485Z,47.44
2022-08-03T13:35:07.677Z,46.41
2022-08-03T13:37:35.470Z,47.03
2022-08-03T13:40:05.725Z,46.70
2022-08-03T13:42:35.561Z,47.70
2022-08-03T13:45:04.188Z,46.93
2022-08-03T13:47:32.351Z,46.48
2022-08-03T13:50:02.717Z,48.16
2022-08-03T13:52:33.860Z,48.02
2022-08-03T13:55:04.556Z,49.22
2022-08-03T13:58:06.215Z,47.70
2022-08-03T14:00:27.855Z,46.85
2022-08-03T14:03:09.072Z,48.90
2022-08-03T14:05:41.792Z,48.71
2022-08-03T14:08:10.234Z,50.05
2022-08-03T14:10:40.261Z,49.80
2022-08-03T14:13:09.013Z,47.63
2022-08-03T14:15:38.478Z,48.64
2022-08-03T14:18:13.011Z,48.46
2022-08-03T14:20:47.777Z,49.49
2022-08-03T14:23:18.097Z,49.35
2022-08-03T14:25:51.799Z,49.95
2022-08-03T14:28:24.540Z,50.72
2022-08-03T14:30:52.876Z,51.89
2022-08-03T14:33:20.943Z,51.44
2022-08-03T14:35:49.436Z,49.67
2022-08-03T14:38:18.699Z,49.00
2022-08-03T14:40:47.207Z,48.71
2022-08-03T14:43:18.192Z,49.44
2022-08-03T14:45:46.392Z,50.30
2022-08-03T14:50:26.547Z,49.55
2022-08-03T14:51:02.842Z,50.23
2022-08-03T14:53:30.685Z,48.74
2022-08-03T14:55:58.697Z,49.41
2022-08-03T14:58:26.882Z,51.07
2022-08-03T15:00:56.138Z,49.61
2022-08-03T15:03:25.483Z,50.61
2022-08-03T15:05:55.391Z,48.79
2022-08-03T15:08:25.739Z,49.59
2022-08-03T15:10:54.852Z,49.75
2022-08-03T15:13:22.838Z,51.20
2022-08-03T15:15:51.839Z,51.39
2022-08-03T15:18:20.493Z,50.88
2022-08-03T15:20:50.559Z,49.45
2022-08-03T15:23:19.534Z,48.52
2022-08-03T15:26:03.974Z,49.14
2022-08-03T15:28:37.522Z,48.91
2022-08-03T15:31:06.872Z,47.77
2022-08-03T15:33:35.451Z,49.73
2022-08-03T15:36:04.524Z,50.45
2022-08-03T15:38:32.104Z,49.50
2022-08-03T15:41:00.524Z,49.97
2022-08-03T15:43:28.556Z,48.55
2022-08-03T15:46:27.809Z,48.30
2022-08-03T15:48:43.848Z,49.00
2022-08-03T15:51:12.458Z,48.10
2022-08-03T15:53:40.252Z,48.28
2022-08-03T15:56:13.268Z,48.84
2022-08-03T15:59:04.665Z,48.10
2022-08-03T16:01:33.088Z,48.81
2022-08-03T16:04:01.119Z,49.44
2022-08-03T16:06:35.522Z,49.31
2022-08-03T16:09:22.894Z,50.61
2022-08-03T16:11:55.644Z,49.79
2022-08-03T16:14:32.008Z,49.36
2022-08-03T16:17:04.417Z,48.46
2022-08-03T16:19:32.580Z,49.61
2022-08-03T16:22:02.019Z,48.14
2022-08-03T16:24:31.910Z,48.23
2022-08-03T16:27:00.472Z,48.38
2022-08-03T16:29:28.768Z,49.09
2022-08-03T16:31:56.944Z,48.79
2022-08-03T16:34:24.810Z,48.73
2022-08-03T16:36:53.000Z,49.42
2022-08-03T16:39:20.996Z,48.53
2022-08-03T16:41:54.525Z,49.18
2022-08-03T16:44:31.291Z,48.73
2022-08-03T16:46:59.587Z,47.35
2022-08-03T16:49:53.692Z,46.77
2022-08-03T16:52:16.611Z,46.16
2022-08-03T16:54:50.633Z,45.30
2022-08-03T16:57:55.937Z,44.84
2022-08-03T17:00:12.377Z,44.79
2022-08-03T17:03:04.462Z,44.61
2022-08-03T17:05:47.184Z,44.96
2022-08-03T17:08:16.625Z,44.05
2022-08-03T17:10:55.144Z,44.32
2022-08-03T17:13:27.729Z,44.72
2022-08-03T17:16:12.138Z,44.73
2022-08-03T17:18:56.212Z,44.82
2022-08-03T17:21:30.886Z,44.38
2022-08-03T17:24:12.395Z,44.16
2022-08-03T17:26:49.854Z,42.75
2022-08-03T17:29:19.484Z,41.77
2022-08-03T17:31:52.357Z,39.74
2022-08-03T17:34:26.294Z,39.01
2022-08-03T17:37:04.549Z,37.67
2022-08-03T17:42:30.241Z,36.37
2022-08-03T17:45:02.539Z,36.36
2022-08-03T17:47:42.774Z,36.62
2022-08-03T17:50:24.518Z,35.90
2022-08-03T17:53:07.020Z,35.35
2022-08-03T17:55:58.553Z,35.21
2022-08-03T17:58:55.679Z,34.85
2022-08-03T18:02:00.275Z,34.83
2022-08-03T18:04:40.527Z,34.69
2022-08-03T18:07:12.673Z,34.58
2022-08-03T18:10:05.755Z,34.55
2022-08-03T18:12:51.810Z,34.48
2022-08-03T18:15:32.640Z,34.22
2022-08-03T18:18:10.707Z,34.21
2022-08-03T18:20:41.724Z,34.09
2022-08-03T18:23:25.139Z,34.03
2022-08-03T18:26:04.873Z,33.95
2022-08-03T18:28:34.604Z,33.85
2022-08-03T18:31:04.502Z,33.70
2022-08-03T18:34:17.447Z,33.67
2022-08-03T18:36:30.036Z,33.56
2022-08-03T18:39:03.217Z,33.41
2022-08-03T18:41:35.115Z,33.42
2022-08-03T18:44:08.844Z,33.38
2022-08-03T18:46:47.479Z,33.20
2022-08-03T18:49:22.053Z,33.24
2022-08-03T18:51:58.553Z,33.11
2022-08-03T18:55:02.790Z,33.08
2022-08-03T18:57:50.959Z,32.98
2022-08-03T19:00:24.417Z,32.94
2022-08-03T19:03:10.195Z,32.92
2022-08-03T19:06:05.884Z,32.95
2022-08-03T19:08:56.177Z,32.99
2022-08-03T19:12:13.874Z,32.94
2022-08-03T19:14:35.355Z,32.88
2022-08-03T19:17:13.258Z,32.56
2022-08-03T19:19:48.175Z,32.70
2022-08-03T19:22:22.407Z,32.71
2022-08-03T19:24:53.484Z,32.63
2022-08-03T19:27:26.780Z,32.66
2022-08-03T19:29:58.962Z,32.53
2022-08-03T19:32:30.311Z,32.50
2022-08-03T19:35:00.363Z,32.49
2022-08-03T19:37:38.731Z,32.37
2022-08-03T19:40:10.776Z,32.37
2022-08-03T19:42:45.348Z,32.28
2022-08-03T19:45:21.983Z,32.19
2022-08-03T19:48:12.985Z,32.01
2022-08-03T19:50:44.588Z,31.79
2022-08-03T19:53:13.679Z,31.68
2022-08-03T19:55:48.801Z,31.60
2022-08-03T19:58:28.456Z,31.66
2022-08-03T20:00:56.680Z,31.51
2022-08-03T20:03:43.053Z,31.28
2022-08-03T20:06:12.770Z,31.18
2022-08-03T20:08:48.238Z,31.14
2022-08-03T20:11:20.423Z,31.06
2022-08-03T20:13:57.715Z,30.85
2022-08-03T20:16:26.410Z,30.64
2022-08-03T20:18:53.935Z,30.68
2022-08-03T20:21:31.166Z,30.56
2022-08-03T20:26:54.586Z,30.65
2022-08-03T20:30:06.985Z,30.71
2022-08-03T20:32:25.186Z,30.75
2022-08-03T20:34:53.451Z,30.54
2022-08-03T20:37:21.519Z,30.58
2022-08-03T20:39:49.935Z,30.51
2022-08-03T20:45:14.060Z,30.36
2022-08-03T20:47:55.356Z,30.45
2022-08-03T20:50:23.439Z,30.38
2022-08-03T20:52:53.874Z,30.30
2022-08-03T20:55:47.865Z,30.24
2022-08-03T20:58:11.285Z,30.35
2022-08-03T21:00:43.656Z,30.23
2022-08-03T21:03:11.860Z,30.32
2022-08-03T21:05:48.242Z,30.22
2022-08-03T21:08:22.583Z,29.98
2022-08-03T21:10:52.545Z,29.95
2022-08-03T21:13:07.251Z,30.36
2022-08-03T21:13:13.297Z,30.58
2022-08-03T21:13:24.945Z,30.01
2022-08-03T21:16:12.309Z,30.09
2022-08-03T21:18:48.700Z,29.99
2022-08-03T21:21:20.057Z,29.90
2022-08-03T21:23:53.593Z,29.95
2022-08-03T21:26:24.268Z,29.90
2022-08-03T21:28:56.558Z,29.99
2022-08-03T21:31:26.759Z,29.79
2022-08-03T21:34:00.617Z,29.85
2022-08-03T21:36:31.083Z,29.95
2022-08-03T21:39:00.389Z,29.97
2022-08-03T21:41:31.345Z,29.74
2022-08-03T21:44:01.211Z,29.80
2022-08-03T21:46:35.256Z,29.91
2022-08-03T21:50:05.554Z,29.83
2022-08-03T21:51:58.619Z,29.91
2022-08-03T21:54:35.582Z,29.77
2022-08-03T21:57:08.965Z,29.54
2022-08-03T21:59:40.384Z,29.62
2022-08-03T22:02:11.455Z,29.55
2022-08-03T22:04:57.204Z,29.53
2022-08-03T22:07:27.452Z,29.56
2022-08-03T22:09:56.601Z,29.29
2022-08-03T22:12:26.869Z,29.43
2022-08-03T22:15:00.573Z,29.34
2022-08-03T22:17:55.837Z,29.32
2022-08-03T22:20:25.686Z,29.33
2022-08-03T22:22:57.069Z,29.21
2022-08-03T22:25:32.552Z,29.35
2022-08-03T22:28:07.434Z,29.21
2022-08-03T22:30:35.643Z,29.17
2022-08-03T22:33:11.678Z,29.31
2022-08-03T22:35:47.885Z,29.14
2022-08-03T22:38:18.477Z,29.04
2022-08-03T22:40:52.753Z,29.01
2022-08-03T22:43:27.756Z,29.17
2022-08-03T22:46:08.836Z,29.22
2022-08-03T22:48:40.926Z,29.23
2022-08-03T22:51:10.344Z,29.05
2022-08-03T22:53:39.543Z,29.00
2022-08-03T22:56:09.047Z,29.09
2022-08-03T22:58:37.334Z,29.16
2022-08-03T23:01:08.421Z,29.04
2022-08-03T23:04:00.228Z,29.06
2022-08-03T23:06:40.578Z,28.93
2022-08-03T23:09:11.771Z,28.88
2022-08-03T23:11:45.922Z,28.98
2022-08-03T23:14:16.908Z,28.99
2022-08-03T23:16:47.048Z,28.95
2022-08-03T23:19:17.311Z,29.00
2022-08-03T23:22:02.456Z,28.79
2022-08-03T23:24:36.430Z,28.63
2022-08-03T23:27:05.815Z,28.63
2022-08-03T23:29:38.504Z,28.76
2022-08-03T23:32:07.402Z,28.76
2022-08-03T23:34:57.029Z,28.80
2022-08-03T23:37:25.317Z,28.69
2022-08-03T23:39:55.437Z,28.59
2022-08-03T23:42:23.510Z,28.61
2022-08-03T23:44:55.290Z,28.48
2022-08-03T23:47:23.619Z,28.51
2022-08-03T23:49:51.426Z,28.48
2022-08-03T23:52:29.695Z,28.39
2022-08-03T23:55:23.209Z,28.29
2022-08-03T23:58:18.065Z,28.38
